Weather observations for the past three days for
Harrisonville Lawrence Smith Memorial Airport
Imperial (Metric)
Date Time (cdt) Wind (mph) Vis. (mi.) Weather Sky Cond. Temperature (ºF) Relative Humidity Wind Chill (°F) Heat Index (°F) Pressure Precipitation (in)
Air Dwpt 6 hour altimeter (in) sea level (mb) 1 hr 3 hr 6 hr
Max. Min.
05 10:15 E 5 5.00 Light Rain BKN055 OVC075 48.2 44.6 87% 47 29.93 0.0 0.03
05 09:55 NE 9 7.00 Rain SCT055 BKN065 OVC075 48.2 44.6 87% 45 29.92 0.0 0.11
05 09:35 NE 7 10.00 Rain SCT065 BKN075 OVC090 48.2 44.6 87% 46 29.93 0.0 0.05
05 09:15 N 6 10.00 Rain OVC065 50 44.6 82% 48 29.94 0.0 0.01
05 08:55 N 8 10.00 Light Rain OVC075 50 42.8 76% 47 29.9 0.0
05 08:35 NE 6 10.00 Light Rain OVC075 50 42.8 76% 48 29.87 0.0
05 08:15 E 9 10.00 Overcast OVC075 50 42.8 76% 47 29.85 0.0
05 07:55 NE 8 10.00 Overcast OVC075 50 42.8 76% 47 29.86 0.0
05 07:35 NE 10 G 17 10.00 Light Rain BKN075 BKN090 BKN110 50 42.8 76% 46 29.85 0.0
05 07:15 NE 7 10.00 Light Rain SCT075 BKN085 OVC110 50 42.8 76% 48 29.86 0.0
05 06:55 NE 8 10.00 Light Rain SCT075 SCT080 OVC110 50 42.8 76% 47 29.85 0.0
05 06:35 NE 9 G 20 10.00 Mostly Cloudy SCT080 BKN110 50 42.8 76% 47 29.82 0.0
05 06:15 NE 12 G 18 10.00 Mostly Cloudy BKN080 50 42.8 76% 46 29.81 0.0
05 05:55 E 6 10.00 Mostly Cloudy BKN080 BKN100 50 42.8 76% 48 29.85 0.0
05 05:35 NE 9 10.00 Mostly Cloudy SCT080 BKN100 50 42.8 76% 47 29.83 0.0
05 05:15 NE 8 10.00 Mostly Cloudy BKN100 50 42.8 76% 47 29.83 0.0
05 04:55 NE 8 10.00 Mostly Cloudy BKN100 50 44.6 82% 47 29.82 0.0
05 04:35 N 12 G 18 10.00 Overcast OVC110 50 42.8 76% 46 29.8 0.0
05 04:15 NE 17 G 24 10.00 Overcast OVC110 51.8 44.6 77% 29.75 0.0
05 03:55 NE 18 G 29 10.00 Partly Cloudy SCT110 50 44.6 82% 44 29.72 0.0 0.08
05 03:35 NE 16 G 26 10.00 Light Rain SCT033 SCT050 BKN085 50 46.4 88% 45 29.78 0.0 0.07
05 03:15 NE 18 G 22 7.00 Rain SCT040 BKN060 OVC080 51.8 48.2 88% 29.8 0.0 0.04
05 02:55 N 7 7.00 Heavy Rain SCT021 BKN049 OVC080 53.6 50 88% 29.84 0.0 0.46
05 02:35 N 20 G 26 5.00 Heavy Rain SCT021 SCT031 OVC044 53.6 50 88% 29.81 0.0 0.34
05 02:15 N 21 G 36 10.00 Heavy Rain and Breezy OVC044 57.2 50 77% 29.76 0.0 0.04
05 01:55 NE 25 G 30 10.00 Overcast and Breezy BKN039 OVC048 69.8 50 50% 29.71 0.0
05 01:35 N 6 10.00 Overcast SCT037 BKN048 OVC060 68 55.4 64% 29.7 0.0
05 01:15 SW 3 10.00 Overcast BKN050 OVC070 68 55.4 64% 29.68 0.0
05 00:55 SW 3 10.00 Mostly Cloudy BKN050 68 55.4 64% 29.68 0.0
05 00:35 Calm 10.00 Fair CLR 68 55.4 64% 29.68 0.0
05 00:15 S 6 10.00 Fair CLR 68 55.4 64% 29.65 0.0
04 23:55 SW 7 10.00 Fair CLR 68 55.4 64% 29.66 0.0
04 23:35 S 5 10.00 Fair CLR 68 55.4 64% 29.68 0.0
04 23:15 SW 7 10.00 Fair CLR 69.8 55.4 60% 29.69 0.0
04 22:55 SW 8 10.00 Fair CLR 71.6 55.4 57% 29.69 0.0
04 22:35 SW 9 10.00 Fair CLR 71.6 57.2 61% 29.69 0.0
04 22:15 SW 9 10.00 Fair CLR 71.6 57.2 61% 29.68 0.0
04 21:55 SW 9 10.00 Fair CLR 71.6 59 65% 29.68 0.0
04 21:35 SW 10 10.00 Fair CLR 73.4 59 61% 29.67 0.0
04 21:15 SW 9 10.00 Fair CLR 73.4 59 61% 29.66 0.0
04 20:55 SW 12 G 17 10.00 Partly Cloudy SCT070 SCT080 75.2 59 57% 78 29.65 0.0
04 20:35 SW 10 10.00 Mostly Cloudy BKN065 BKN080 77 59 54% 79 29.64 0.0
04 20:15 SW 10 10.00 Mostly Cloudy SCT065 BKN075 77 59 54% 79 29.63 0.0
04 19:55 W 8 10.00 Mostly Cloudy SCT065 BKN075 77 59 54% 79 29.62 0.0
04 19:35 SW 6 10.00 Overcast OVC065 78.8 57.2 48% 80 29.62 0.0
04 19:15 SW 7 10.00 Partly Cloudy SCT065 78.8 55.4 45% 79 29.62 0.0
04 18:55 W 9 G 16 10.00 Fair CLR 80.6 53.6 39% 80 29.62 0.0
04 18:35 SW 9 10.00 Partly Cloudy SCT065 80.6 55.4 42% 81 29.62 0.0
04 18:15 SW 9 G 17 10.00 Mostly Cloudy BKN065 80.6 55.4 42% 81 29.62 0.0
04 17:55 W 9 G 17 10.00 Fair CLR 82.4 55.4 40% 82 29.62 0.0
04 17:35 SW 13 G 18 10.00 Fair CLR 80.6 55.4 42% 81 29.62 0.0
04 17:15 SW 13 G 23 10.00 Fair CLR 82.4 55.4 40% 82 29.62 0.0
04 16:55 SW 12 G 20 10.00 Fair CLR 82.4 55.4 40% 82 29.63 0.0
04 16:35 SW 14 G 23 10.00 Fair CLR 84.2 55.4 37% 83 29.62 0.0
04 16:15 SW 14 G 23 10.00 Fair CLR 82.4 53.6 37% 81 29.63 0.0
04 15:55 SW 14 G 24 10.00 Fair CLR 84.2 53.6 35% 83 29.64 0.0
04 15:35 SW 14 G 22 10.00 Fair CLR 82.4 53.6 37% 81 29.64 0.0
04 15:15 SW 18 G 22 10.00 Fair CLR 82.4 53.6 37% 81 29.64 0.0
04 14:55 SW 14 G 21 10.00 Fair CLR 82.4 53.6 37% 81 29.65 0.0
04 14:35 SW 14 G 18 10.00 Fair CLR 82.4 53.6 37% 81 29.66 0.0
04 14:15 W 16 G 23 10.00 Fair CLR 80.6 51.8 37% 80 29.66 0.0
04 13:55 SW 17 G 22 10.00 Fair CLR 80.6 53.6 39% 80 29.66 0.0
04 13:35 SW 13 10.00 Fair CLR 80.6 51.8 37% 80 29.67 0.0
04 13:15 W 17 G 24 10.00 Fair CLR 80.6 50 34% 80 29.67 0.0
04 12:55 W 15 G 22 10.00 Fair CLR 78.8 51.8 39% 79 29.68 0.0
04 12:35 W 15 G 23 10.00 Fair CLR 78.8 51.8 39% 79 29.68 0.0
04 12:15 SW 12 G 21 10.00 Fair CLR 78.8 51.8 39% 79 29.68 0.0
04 11:55 SW 21 G 24 10.00 Fair and Breezy CLR 77 50 39% 78 29.69 0.0
04 11:35 W 16 G 24 10.00 Fair CLR 77 51.8 42% 78 29.69 0.0
04 11:15 SW 16 G 23 10.00 Fair CLR 75.2 50 41% 78 29.69 0.0
04 10:55 SW 14 G 20 10.00 Fair CLR 73.4 50 44% 29.7 0.0
04 10:35 SW 9 G 18 10.00 Fair CLR 73.4 50 44% 29.7 0.0
04 10:15 SW 15 G 18 10.00 Fair CLR 71.6 50 47% 29.7 0.0
04 09:55 SW 7 10.00 Fair CLR 68 50 53% 29.7 0.0
04 09:35 SW 10 G 18 10.00 Fair CLR 69.8 50 50% 29.7 0.0
04 09:15 SW 10 G 17 10.00 Fair CLR 68 50 53% 29.7 0.0
04 08:55 SW 13 10.00 Fair CLR 66.2 48.2 52% 29.7 0.0
04 08:35 SW 14 G 22 10.00 Fair CLR 68 46.4 46% 29.7 0.0
04 08:15 SW 13 G 16 10.00 Fair CLR 64.4 46.4 52% 29.71 0.0
04 07:55 SW 10 10.00 Fair CLR 64.4 46.4 52% 29.7 0.0
04 07:35 SW 8 10.00 Fair CLR 64.4 46.4 52% 29.71 0.0
04 07:15 SW 7 10.00 Fair CLR 64.4 44.6 49% 29.71 0.0
04 06:55 SW 10 G 16 10.00 Fair CLR 64.4 44.6 49% 29.7 0.0
04 06:35 SW 15 G 26 10.00 Fair CLR 64.4 44.6 49% 29.69 0.0
04 06:15 SW 14 G 17 10.00 Fair CLR 64.4 44.6 49% 29.7 0.0
04 05:55 SW 13 G 18 10.00 Fair CLR 64.4 44.6 49% 29.7 0.0
04 05:35 SW 12 G 17 10.00 Fair CLR 64.4 44.6 49% 29.71 0.0
04 05:15 SW 9 10.00 Fair CLR 64.4 44.6 49% 29.71 0.0
04 04:55 SW 9 10.00 Fair CLR 64.4 44.6 49% 29.73 0.0
04 04:35 SW 9 10.00 Fair CLR 66.2 44.6 46% 29.74 0.0
04 04:15 SW 9 10.00 Fair CLR 66.2 44.6 46% 29.74 0.0
04 03:55 SW 9 10.00 Fair CLR 66.2 44.6 46% 29.74 0.0
04 03:35 SW 8 10.00 Fair CLR 66.2 44.6 46% 29.75 0.0
04 03:15 SW 8 10.00 Fair CLR 66.2 44.6 46% 29.75 0.0
04 02:55 SW 6 10.00 Fair CLR 64.4 44.6 49% 29.76 0.0
04 02:35 SW 6 10.00 Fair CLR 64.4 44.6 49% 29.77 0.0
04 02:15 Calm 10.00 Fair CLR 64.4 46.4 52% 29.77 0.0
04 01:55 Calm 10.00 Fair CLR 64.4 46.4 52% 29.78 0.0
04 01:35 NE 7 10.00 Fair CLR 64.4 46.4 52% 29.79 0.0
04 01:15 SW 9 10.00 Fair CLR 68 46.4 46% 29.78 0.0
04 00:55 SW 7 10.00 Fair CLR 68 46.4 46% 29.78 0.0
04 00:35 SW 9 10.00 Fair CLR 68 46.4 46% 29.78 0.0
04 00:15 SW 9 10.00 Fair CLR 68 48.2 49% 29.78 0.0
03 23:55 SW 7 10.00 Fair CLR 66.2 50 56% 29.78 0.0
03 23:35 SW 6 10.00 Fair CLR 68 51.8 56% 29.79 0.0
03 23:15 SW 6 10.00 Fair CLR 68 51.8 56% 29.79 0.0
03 22:55 S 6 10.00 Fair CLR 69.8 51.8 53% 29.79 0.0
03 22:35 S 7 10.00 Fair CLR 69.8 51.8 53% 29.8 0.0
03 22:15 S 6 10.00 Fair CLR 69.8 51.8 53% 29.8 0.0
03 21:55 S 7 10.00 Fair CLR 69.8 51.8 53% 29.8 0.0
03 21:35 S 6 10.00 Fair CLR 69.8 51.8 53% 29.8 0.0
03 21:15 S 5 10.00 Fair CLR 71.6 51.8 50% 29.8 0.0
03 20:55 S 3 10.00 Fair CLR 71.6 51.8 50% 29.8 0.0
03 20:35 S 5 10.00 Fair CLR 71.6 51.8 50% 29.8 0.0
03 20:15 S 5 10.00 Fair CLR 73.4 51.8 47% 29.8 0.0
03 19:55 S 7 10.00 Fair CLR 73.4 50 44% 29.8 0.0
03 19:35 S 6 10.00 Fair CLR 75.2 50 41% 78 29.8 0.0
03 19:15 SW 7 10.00 Fair CLR 77 50 39% 78 29.81 0.0
03 18:55 SW 9 10.00 Fair CLR 78.8 46.4 32% 79 29.82 0.0
03 18:35 SW 13 G 21 10.00 Fair CLR 80.6 44.6 28% 79 29.82 0.0
03 18:15 SW 12 G 17 10.00 Fair CLR 82.4 44.6 26% 81 29.82 0.0
03 17:55 SW 13 G 18 10.00 Fair CLR 82.4 44.6 26% 81 29.82 0.0
03 17:35 SW 15 G 21 10.00 Fair CLR 82.4 44.6 26% 81 29.83 0.0
03 17:15 W 17 G 25 10.00 Fair CLR 82.4 44.6 26% 81 29.83 0.0
03 16:55 SW 12 10.00 Fair CLR 82.4 46.4 28% 81 29.83 0.0
03 16:35 SW 12 G 17 10.00 Fair CLR 82.4 46.4 28% 81 29.84 0.0
03 16:15 SW 16 G 22 10.00 Fair CLR 82.4 44.6 26% 81 29.85 0.0
03 15:55 SW 14 G 22 10.00 Fair CLR 82.4 44.6 26% 81 29.86 0.0
03 15:35 SW 15 G 24 10.00 Fair CLR 82.4 46.4 28% 81 29.87 0.0
03 15:15 W 14 G 21 10.00 Fair CLR 80.6 46.4 30% 80 29.88 0.0
03 14:55 W 20 G 23 10.00 Fair CLR 80.6 46.4 30% 80 29.88 0.0
03 14:35 SW 20 G 28 10.00 Fair CLR 80.6 44.6 28% 79 29.89 0.0
03 14:15 W 15 G 24 10.00 Fair CLR 80.6 46.4 30% 80 29.9 0.0
03 13:55 SW 14 G 23 10.00 Fair CLR 78.8 46.4 32% 79 29.91 0.0
03 13:35 W 13 G 24 10.00 Fair CLR 78.8 46.4 32% 79 29.92 0.0
03 13:15 W 16 G 23 10.00 Fair CLR 77 46.4 34% 78 29.93 0.0
03 12:55 SW 18 G 25 10.00 Fair CLR 77 46.4 34% 78 29.95 0.0
03 12:35 SW 16 10.00 Fair CLR 75.2 46.4 36% 77 29.95 0.0
03 12:15 SW 15 G 18 10.00 Fair CLR 73.4 46.4 38% 29.96 0.0
03 11:55 SW 18 G 23 10.00 Fair CLR 71.6 44.6 38% 29.97 0.0
03 11:35 SW 18 G 23 10.00 Fair CLR 71.6 44.6 38% 29.97 0.0
03 11:15 SW 18 G 23 10.00 Fair CLR 69.8 44.6 40% 29.98 0.0
03 10:55 SW 16 G 22 10.00 Fair CLR 68 42.8 40% 29.99 0.0
03 10:35 SW 13 G 17 10.00 Fair CLR 66.2 42.8 43% 30 0.0
03 10:15 SW 15 G 21 10.00 Fair CLR 64.4 41 43% 30 0.0
03 09:55 SW 13 G 23 10.00 Fair CLR 62.6 41 45% 30.01 0.0
03 09:35 SW 12 G 20 10.00 Fair CLR 60.8 41 48% 30.02 0.0
03 09:15 SW 12 10.00 Fair CLR 59 41 51% 30.02 0.0
03 08:55 SW 9 10.00 Fair CLR 57.2 39.2 51% 30.02 0.0
03 08:35 SW 10 G 17 10.00 Fair CLR 55.4 39.2 55% 30.02 0.0
03 08:15 SW 9 G 16 10.00 Fair CLR 53.6 37.4 54% 30.03 0.0
03 07:55 S 9 10.00 Fair CLR 51.8 37.4 58% 30.03 0.0
03 07:35 SW 6 10.00 Fair CLR 50 37.4 62% 48 30.04 0.0
03 07:15 SW 6 10.00 Fair CLR 46.4 37.4 71% 44 30.04 0.0
03 06:55 S 3 10.00 Fair CLR 46.4 37.4 71% 30.03 0.0
03 06:35 S 3 10.00 Fair CLR 44.6 37.4 76% 30.03 0.0
03 06:15 S 3 10.00 Fair CLR 44.6 37.4 76% 30.03 0.0
03 05:55 S 5 10.00 Fair CLR 44.6 37.4 76% 43 30.04 0.0
03 05:35 S 5 10.00 Fair CLR 44.6 37.4 76% 43 30.04 0.0
03 05:15 S 5 10.00 Fair CLR 46.4 37.4 71% 45 30.05 0.0
03 04:55 S 5 10.00 Fair CLR 46.4 37.4 71% 45 30.06 0.0
03 04:35 S 3 10.00 Fair CLR 46.4 37.4 71% 30.06 0.0
03 04:15 S 5 10.00 Fair CLR 46.4 37.4 71% 45 30.06 0.0
03 03:55 S 5 10.00 Fair CLR 44.6 37.4 76% 43 30.06 0.0
03 03:35 S 3 10.00 Fair CLR 44.6 37.4 76% 30.06 0.0
03 03:15 S 3 10.00 Fair CLR 44.6 37.4 76% 30.07 0.0
03 02:55 Calm 10.00 Fair CLR 42.8 37.4 81% 30.07 0.0
03 02:35 Calm 10.00 Fair CLR 44.6 37.4 76% 30.07 0.0
03 02:15 S 3 10.00 Fair CLR 44.6 37.4 76% 30.08 0.0
03 01:55 Calm 10.00 Fair CLR 42.8 37.4 81% 30.09 0.0
03 01:35 Calm 10.00 Fair CLR 42.8 37.4 81% 30.09 0.0
03 01:15 Calm 10.00 Fair CLR 44.6 37.4 76% 30.09 0.0
03 00:55 SE 6 10.00 Fair CLR 42.8 39.2 87% 40 30.1 0.0
03 00:35 Calm 10.00 Fair CLR 42.8 39.2 87% 30.11 0.0
03 00:15 Calm 10.00 Fair CLR 42.8 41 93% 30.12 0.0
02 23:55 Calm 10.00 Fair CLR 44.6 39.2 81% 30.12 0.0
02 23:35 Calm 10.00 Fair CLR 44.6 39.2 81% 30.12 0.0
02 23:15 Calm 10.00 Fair CLR 44.6 41 87% 30.12 0.0
02 22:55 Calm 10.00 Fair CLR 44.6 39.2 81% 30.13 0.0
02 22:35 Calm 10.00 Fair CLR 46.4 41 82% 30.13 0.0
02 22:15 Calm 10.00 Fair CLR 46.4 39.2 76% 30.14 0.0
02 21:55 Calm 10.00 Fair CLR 48.2 41 76% 30.13 0.0
02 21:35 Calm 10.00 Fair CLR 50 41 71% 30.13 0.0
02 21:15 Calm 10.00 Fair CLR 50 39.2 67% 30.13 0.0
02 20:55 Calm 10.00 Fair CLR 51.8 35.6 54% 30.12 0.0
02 20:35 Calm 10.00 Fair CLR 55.4 37.4 51% 30.12 0.0
02 20:15 SW 3 10.00 Fair CLR 59 32 36% 30.12 0.0
02 19:55 W 3 10.00 Fair CLR 60.8 32 34% 30.12 0.0
02 19:35 W 3 10.00 Fair CLR 60.8 30.2 31% 30.12 0.0
02 19:15 NW 3 10.00 Fair CLR 62.6 28.4 27% 30.12 0.0
02 18:55 NW 5 10.00 Fair CLR 64.4 30.2 28% 30.12 0.0
02 18:35 W 3 10.00 Fair CLR 64.4 30.2 28% 30.13 0.0
02 18:15 N 7 10.00 Fair CLR 64.4 30.2 28% 30.13 0.0
02 17:55 NW 5 10.00 Fair CLR 64.4 30.2 28% 30.13 0.0
02 17:35 SW 6 10.00 Fair CLR 64.4 32 30% 30.13 0.0
02 17:15 W 6 10.00 Fair CLR 66.2 32 28% 30.14 0.0
02 16:55 Calm 10.00 Fair CLR 64.4 28.4 26% 30.14 0.0
02 16:35 N 6 10.00 Fair CLR 64.4 30.2 28% 30.15 0.0
02 16:15 W 7 10.00 Fair CLR 64.4 30.2 28% 30.15 0.0
02 15:55 SW 6 10.00 Fair CLR 64.4 30.2 28% 30.16 0.0
02 15:35 W 7 10.00 Fair CLR 64.4 30.2 28% 30.16 0.0
02 15:15 N 9 10.00 Fair CLR 64.4 32 30% 30.17 0.0
02 14:55 NW 6 10.00 Fair CLR 64.4 32 30% 30.17 0.0
02 14:35 N 3 10.00 Fair CLR 64.4 32 30% 30.17 0.0
02 14:15 N 9 10.00 Fair CLR 62.6 32 32% 30.18 0.0
02 13:55 N 5 G 9 10.00 Partly Cloudy SCT065 62.6 30.2 30% 30.19 0.0
02 13:35 NW 9 10.00 Mostly Cloudy BKN065 60.8 30.2 31% 30.2 0.0
02 13:15 NW 10 G 16 10.00 Partly Cloudy SCT065 62.6 32 32% 30.2 0.0
02 12:55 Calm 10.00 Fair CLR 60.8 30.2 31% 30.2 0.0
02 12:35 N 5 10.00 Partly Cloudy SCT060 60.8 32 34% 30.2 0.0
02 12:15 NE 10 10.00 Partly Cloudy SCT060 59 32 36% 30.21 0.0
02 11:55 N 9 10.00 Fair CLR 59 32 36% 30.21 0.0
02 11:35 NE 3 10.00 Partly Cloudy SCT050 59 32 36% 30.21 0.0
02 11:15 E 3 10.00 Partly Cloudy SCT050 59 32 36% 30.21 0.0
02 10:55 N 6 10.00 Partly Cloudy SCT050 59 32 36% 30.21 0.0
02 10:35 N 7 10.00 Fair CLR 59 33.8 39% 30.21 0.0
Date Time (cdt) Wind (mph) Vis. (mi.) Weather Sky Cond. Air Dwpt Max. Min. Relative Humidity Wind Chill (°F) Heat Index (°F) altimeter (in) sea level (mb) 1 hr 3 hr 6 hr
6 hour
Temperature (ºF) Pressure Precipitation (in)